createdAt,value
2022-12-11T00:00:20.062Z,92.13
2022-12-11T00:01:20.073Z,92.02
2022-12-11T00:02:20.077Z,91.91
2022-12-11T00:03:20.083Z,92.02
2022-12-11T00:04:20.039Z,91.87
2022-12-11T00:05:20.051Z,91.77
2022-12-11T00:06:19.992Z,91.25
2022-12-11T00:07:19.997Z,91.46
2022-12-11T00:08:20.074Z,91.46
2022-12-11T00:09:19.987Z,91.56
2022-12-11T00:10:19.948Z,91.56
2022-12-11T00:11:19.956Z,91.35
2022-12-11T00:12:19.945Z,91.66
2022-12-11T00:13:19.937Z,91.77
2022-12-11T00:14:19.885Z,91.46
2022-12-11T00:15:19.906Z,91.14
2022-12-11T00:16:25.218Z,91.14
2022-12-11T00:17:20.892Z,90.62
2022-12-11T00:18:19.831Z,89.89
2022-12-11T00:19:19.841Z,89.78
2022-12-11T00:20:19.822Z,89.89
2022-12-11T00:21:19.810Z,90.09
2022-12-11T00:22:19.817Z,89.68
2022-12-11T00:23:19.805Z,89.58
2022-12-11T00:24:19.759Z,90.24
2022-12-11T00:25:19.767Z,90.97
2022-12-11T00:26:19.736Z,91.39
2022-12-11T00:27:19.738Z,91.91
2022-12-11T00:28:19.745Z,91.71
2022-12-11T00:29:19.716Z,91.81
2022-12-11T00:30:19.686Z,91.39
2022-12-11T00:31:19.724Z,90.77
2022-12-11T00:32:19.654Z,91.18
2022-12-11T00:33:19.662Z,91.39
2022-12-11T00:34:19.653Z,91.50
2022-12-11T00:35:19.633Z,91.39
2022-12-11T00:36:19.606Z,91.02
2022-12-11T00:37:19.699Z,91.28
2022-12-11T00:38:19.581Z,90.81
2022-12-11T00:39:19.635Z,91.22
2022-12-11T00:40:19.560Z,91.43
2022-12-11T00:41:19.555Z,91.64
2022-12-11T00:42:19.527Z,91.85
2022-12-11T00:43:19.539Z,92.44
2022-12-11T00:44:19.533Z,92.23
2022-12-11T00:45:19.562Z,91.81
2022-12-11T00:46:19.519Z,91.71
2022-12-11T00:47:19.495Z,91.71
2022-12-11T00:48:19.450Z,91.81
2022-12-11T00:49:19.461Z,91.71
2022-12-11T00:50:19.441Z,91.08
2022-12-11T00:51:19.464Z,91.50
2022-12-11T00:52:19.401Z,91.28
2022-12-11T00:53:19.419Z,91.39
2022-12-11T00:54:19.460Z,91.18
2022-12-11T00:55:19.388Z,91.54
2022-12-11T00:56:19.381Z,91.85
2022-12-11T00:57:19.366Z,92.27
2022-12-11T00:58:19.318Z,92.58
2022-12-11T00:59:19.344Z,92.38
2022-12-11T01:00:19.297Z,92.48
2022-12-11T01:01:19.388Z,92.48
2022-12-11T01:02:19.297Z,92.69
2022-12-11T01:03:19.287Z,92.79
2022-12-11T01:04:19.246Z,93.11
2022-12-11T01:05:19.262Z,92.90
2022-12-11T01:06:19.224Z,92.69
2022-12-11T01:07:19.266Z,92.69
2022-12-11T01:08:19.264Z,92.16
2022-12-11T01:09:19.201Z,92.58
2022-12-11T01:10:19.211Z,93.21
2022-12-11T01:11:19.189Z,93.01
2022-12-11T01:12:19.169Z,92.79
2022-12-11T01:13:19.160Z,91.89
2022-12-11T01:14:19.151Z,92.10
2022-12-11T01:15:19.122Z,92.42
2022-12-11T01:16:19.127Z,92.52
2022-12-11T01:17:19.097Z,92.63
2022-12-11T01:18:19.075Z,92.52
2022-12-11T01:19:19.095Z,92.63
2022-12-11T01:20:19.071Z,92.52
2022-12-11T01:21:19.070Z,92.63
2022-12-11T01:22:19.023Z,92.94
2022-12-11T01:23:19.053Z,92.21
2022-12-11T01:24:19.035Z,91.37
2022-12-11T01:25:19.010Z,91.79
2022-12-11T01:26:18.971Z,92.25
2022-12-11T01:27:18.971Z,92.88
2022-12-11T01:28:18.959Z,93.30
2022-12-11T01:29:18.968Z,93.40
2022-12-11T01:30:18.939Z,93.82
2022-12-11T01:31:18.998Z,93.88
2022-12-11T01:32:18.898Z,93.26
2022-12-11T01:33:18.909Z,92.73
2022-12-11T01:34:18.880Z,92.83
2022-12-11T01:35:18.921Z,93.15
2022-12-11T01:36:18.872Z,92.73
2022-12-11T01:37:18.857Z,92.42
2022-12-11T01:38:18.815Z,92.21
2022-12-11T01:39:18.832Z,92.21
2022-12-11T01:40:18.801Z,92.31
2022-12-11T01:41:18.803Z,92.42
2022-12-11T01:42:18.798Z,91.69
2022-12-11T01:43:18.770Z,91.47
2022-12-11T01:44:18.749Z,91.58
2022-12-11T01:45:18.748Z,91.47
2022-12-11T01:46:18.751Z,91.72
2022-12-11T01:47:18.731Z,92.14
2022-12-11T01:48:18.712Z,92.46
2022-12-11T01:49:18.699Z,92.57
2022-12-11T01:50:18.687Z,92.77
2022-12-11T01:51:18.685Z,92.98
2022-12-11T01:52:18.634Z,92.98
2022-12-11T01:53:18.663Z,93.08
2022-12-11T01:54:18.653Z,93.08
2022-12-11T01:55:18.653Z,93.30
2022-12-11T01:56:18.590Z,93.51
2022-12-11T01:57:18.603Z,93.40
2022-12-11T01:58:18.565Z,93.40
2022-12-11T01:59:18.581Z,93.04
2022-12-11T02:00:18.531Z,92.31
2022-12-11T02:01:18.656Z,92.00
2022-12-11T02:02:18.611Z,91.69
2022-12-11T02:03:18.518Z,91.69
2022-12-11T02:04:18.488Z,91.79
2022-12-11T02:05:18.503Z,91.79
2022-12-11T02:06:18.464Z,91.79
2022-12-11T02:07:18.505Z,90.95
2022-12-11T02:08:18.480Z,92.25
2022-12-11T02:09:18.456Z,92.31
2022-12-11T02:10:18.416Z,92.14
2022-12-11T02:11:25.485Z,91.94
2022-12-11T02:12:18.417Z,91.94
2022-12-11T02:13:18.438Z,92.25
2022-12-11T02:14:18.362Z,91.94
2022-12-11T02:15:18.361Z,92.08
2022-12-11T02:16:18.450Z,92.50
2022-12-11T02:17:18.355Z,92.82
2022-12-11T02:18:18.339Z,93.02
2022-12-11T02:19:18.370Z,93.34
2022-12-11T02:20:18.289Z,93.13
2022-12-11T02:21:18.305Z,93.24
2022-12-11T02:22:19.058Z,93.24
2022-12-11T02:23:18.287Z,93.27
2022-12-11T02:24:18.255Z,93.59
2022-12-11T02:25:18.266Z,93.97
2022-12-11T02:26:18.234Z,93.70
2022-12-11T02:27:18.235Z,93.59
2022-12-11T02:28:18.193Z,93.38
2022-12-11T02:29:18.233Z,93.49
2022-12-11T02:30:18.186Z,94.06
2022-12-11T02:31:18.207Z,94.37
2022-12-11T02:32:18.143Z,94.37
2022-12-11T02:33:18.160Z,94.37
2022-12-11T02:34:18.110Z,94.37
2022-12-11T02:35:18.171Z,94.68
2022-12-11T02:36:18.111Z,94.68
2022-12-11T02:37:18.117Z,94.68
2022-12-11T02:38:18.066Z,94.89
2022-12-11T02:39:18.100Z,94.89
2022-12-11T02:40:18.071Z,94.89
2022-12-11T02:41:18.106Z,95.21
2022-12-11T02:42:18.005Z,95.06
2022-12-11T02:43:18.024Z,95.06
2022-12-11T02:44:18.006Z,94.54
2022-12-11T02:45:18.024Z,94.22
2022-12-11T02:46:18.066Z,93.91
2022-12-11T02:47:17.969Z,93.80
2022-12-11T02:48:17.955Z,94.22
2022-12-11T02:49:17.960Z,94.54
2022-12-11T02:50:17.950Z,94.32
2022-12-11T02:51:17.930Z,93.91
2022-12-11T02:52:17.909Z,93.70
2022-12-11T02:53:17.966Z,93.49
2022-12-11T02:54:17.869Z,93.70
2022-12-11T02:55:17.888Z,93.91
2022-12-11T02:56:17.850Z,94.22
2022-12-11T02:57:17.855Z,94.32
2022-12-11T02:58:17.817Z,94.22
2022-12-11T02:59:17.835Z,94.01
2022-12-11T03:00:17.786Z,93.65
2022-12-11T03:01:17.834Z,93.34
2022-12-11T03:02:17.920Z,93.13
2022-12-11T03:03:17.803Z,93.38
2022-12-11T03:04:17.761Z,93.44
2022-12-11T03:05:17.783Z,93.65
2022-12-11T03:06:17.710Z,93.76
2022-12-11T03:07:18.469Z,93.76
2022-12-11T03:08:17.836Z,93.55
2022-12-11T03:09:17.689Z,93.44
2022-12-11T03:10:17.688Z,93.51
2022-12-11T03:11:17.719Z,93.51
2022-12-11T03:12:17.646Z,93.19
2022-12-11T03:13:17.666Z,92.98
2022-12-11T03:14:17.636Z,92.82
2022-12-11T03:15:17.614Z,92.77
2022-12-11T03:16:17.925Z,92.40
2022-12-11T03:17:17.574Z,92.50
2022-12-11T03:18:17.600Z,93.27
2022-12-11T03:19:17.573Z,93.59
2022-12-11T03:20:17.571Z,93.80
2022-12-11T03:21:17.565Z,94.12
2022-12-11T03:22:17.540Z,94.22
2022-12-11T03:23:17.530Z,94.26
2022-12-11T03:24:17.511Z,94.47
2022-12-11T03:25:17.519Z,94.32
2022-12-11T03:26:17.503Z,94.06
2022-12-11T03:27:17.514Z,94.37
2022-12-11T03:28:17.466Z,94.26
2022-12-11T03:29:17.427Z,94.68
2022-12-11T03:30:17.442Z,94.79
2022-12-11T03:31:17.431Z,94.89
2022-12-11T03:32:17.430Z,95.04
2022-12-11T03:33:17.432Z,94.93
2022-12-11T03:34:17.393Z,94.79
2022-12-11T03:35:17.396Z,94.58
2022-12-11T03:36:17.391Z,94.79
2022-12-11T03:37:17.331Z,94.37
2022-12-11T03:38:17.387Z,94.16
2022-12-11T03:39:17.370Z,94.37
2022-12-11T03:40:17.320Z,94.26
2022-12-11T03:41:17.296Z,94.22
2022-12-11T03:42:17.284Z,94.01
2022-12-11T03:43:17.289Z,93.80
2022-12-11T03:44:18.220Z,93.55
2022-12-11T03:45:17.235Z,93.24
2022-12-11T03:46:17.298Z,93.02
2022-12-11T03:47:17.205Z,92.82
2022-12-11T03:48:17.222Z,92.77
2022-12-11T03:49:17.224Z,92.57
2022-12-11T03:50:17.193Z,92.04
2022-12-11T03:51:17.199Z,91.72
2022-12-11T03:52:17.190Z,91.62
2022-12-11T03:53:17.125Z,91.41
2022-12-11T03:54:17.151Z,90.84
2022-12-11T03:55:17.109Z,90.64
2022-12-11T03:56:17.132Z,90.53
2022-12-11T03:57:17.098Z,90.43
2022-12-11T03:58:17.089Z,89.90
2022-12-11T03:59:17.128Z,89.70
2022-12-11T04:00:17.095Z,89.80
2022-12-11T04:01:17.048Z,89.73
2022-12-11T04:02:17.070Z,89.84
2022-12-11T04:03:17.006Z,90.16
2022-12-11T04:04:17.048Z,89.95
2022-12-11T04:05:16.995Z,90.05
2022-12-11T04:06:16.981Z,90.16
2022-12-11T04:07:16.990Z,89.95
2022-12-11T04:08:17.036Z,89.84
2022-12-11T04:09:16.923Z,90.09
2022-12-11T04:10:16.930Z,90.30
2022-12-11T04:11:16.910Z,90.61
2022-12-11T04:12:16.919Z,90.61
2022-12-11T04:13:16.958Z,90.51
2022-12-11T04:14:16.890Z,90.61
2022-12-11T04:15:16.848Z,90.61
2022-12-11T04:16:16.916Z,90.41
2022-12-11T04:17:16.856Z,90.51
2022-12-11T04:18:16.867Z,90.51
2022-12-11T04:19:16.823Z,90.20
2022-12-11T04:20:16.832Z,89.98
2022-12-11T04:21:16.771Z,90.66
2022-12-11T04:22:16.775Z,91.53
2022-12-11T04:23:16.755Z,92.06
2022-12-11T04:24:16.787Z,92.38
2022-12-11T04:25:16.723Z,92.48
2022-12-11T04:26:16.720Z,93.05
2022-12-11T04:27:16.720Z,93.36
2022-12-11T04:28:16.705Z,93.47
2022-12-11T04:29:16.699Z,93.47
2022-12-11T04:30:16.685Z,93.47
2022-12-11T04:31:16.672Z,93.62
2022-12-11T04:32:16.659Z,93.82
2022-12-11T04:33:16.633Z,94.04
2022-12-11T04:34:16.659Z,94.04
2022-12-11T04:35:16.645Z,94.24
2022-12-11T04:36:16.615Z,94.56
2022-12-11T04:37:16.614Z,94.35
2022-12-11T04:38:16.613Z,94.56
2022-12-11T04:39:16.552Z,94.67
2022-12-11T04:40:16.592Z,94.67
2022-12-11T04:41:16.526Z,94.67
2022-12-11T04:42:16.537Z,94.87
2022-12-11T04:43:16.511Z,95.02
2022-12-11T04:44:16.540Z,95.44
2022-12-11T04:45:16.511Z,95.08
2022-12-11T04:46:16.530Z,94.87
2022-12-11T04:47:16.448Z,94.56
2022-12-11T04:48:16.457Z,94.45
2022-12-11T04:49:16.436Z,93.93
2022-12-11T04:50:16.425Z,93.97
2022-12-11T04:51:17.175Z,94.29
2022-12-11T04:52:16.394Z,94.45
2022-12-11T04:53:16.377Z,94.39
2022-12-11T04:54:16.393Z,94.56
2022-12-11T04:55:16.393Z,94.39
2022-12-11T04:56:16.352Z,94.49
2022-12-11T04:57:16.372Z,94.39
2022-12-11T04:58:16.322Z,94.29
2022-12-11T04:59:16.291Z,94.18
2022-12-11T05:00:16.289Z,94.49
2022-12-11T05:01:16.435Z,94.49
2022-12-11T05:02:16.288Z,94.71
2022-12-11T05:03:16.257Z,94.71
2022-12-11T05:04:16.289Z,94.71
2022-12-11T05:05:16.217Z,94.65
2022-12-11T05:06:16.218Z,94.75
2022-12-11T05:07:16.256Z,94.65
2022-12-11T05:08:16.415Z,94.85
2022-12-11T05:09:16.166Z,95.17
2022-12-11T05:10:16.234Z,95.38
2022-12-11T05:11:16.204Z,95.38
2022-12-11T05:12:16.174Z,95.28
2022-12-11T05:13:16.143Z,95.06
2022-12-11T05:14:16.121Z,94.96
2022-12-11T05:15:16.826Z,94.71
2022-12-11T05:16:16.141Z,94.65
2022-12-11T05:17:16.078Z,94.75
2022-12-11T05:18:16.070Z,94.85
2022-12-11T05:19:16.090Z,94.85
2022-12-11T05:20:16.054Z,94.75
2022-12-11T05:21:16.025Z,94.65
2022-12-11T05:22:16.016Z,94.49
2022-12-11T05:23:16.000Z,94.12
2022-12-11T05:24:16.014Z,94.01
2022-12-11T05:25:16.014Z,93.97
2022-12-11T05:26:16.008Z,93.66
2022-12-11T05:27:15.960Z,93.24
2022-12-11T05:28:15.972Z,92.92
2022-12-11T05:29:15.911Z,92.82
2022-12-11T05:30:16.020Z,93.02
2022-12-11T05:31:15.977Z,92.71
2022-12-11T05:32:15.890Z,92.50
2022-12-11T05:33:15.851Z,92.40
2022-12-11T05:34:15.939Z,92.35
2022-12-11T05:35:16.799Z,92.04
2022-12-11T05:36:16.807Z,91.83
2022-12-11T05:37:15.806Z,91.94
2022-12-11T05:38:15.815Z,91.94
2022-12-11T05:39:15.796Z,91.62
2022-12-11T05:40:15.835Z,91.52
2022-12-11T05:41:15.757Z,90.99
2022-12-11T05:42:15.770Z,90.78
2022-12-11T05:43:15.724Z,90.67
2022-12-11T05:44:15.743Z,90.47
2022-12-11T05:45:15.705Z,90.36
2022-12-11T05:46:15.792Z,90.57
2022-12-11T05:47:15.679Z,90.67
2022-12-11T05:48:15.716Z,90.95
2022-12-11T05:49:19.635Z,90.95
2022-12-11T05:50:15.670Z,90.84
2022-12-11T05:51:15.666Z,90.53
2022-12-11T05:52:15.656Z,90.00
2022-12-11T05:53:15.643Z,89.69
2022-12-11T05:54:15.618Z,89.59
2022-12-11T05:55:15.589Z,89.59
2022-12-11T05:56:15.616Z,89.48
2022-12-11T05:57:15.624Z,89.17
2022-12-11T05:58:15.555Z,89.02
2022-12-11T05:59:15.541Z,89.02
2022-12-11T06:00:15.545Z,88.92
2022-12-11T06:01:15.501Z,88.60
2022-12-11T06:02:15.603Z,88.49
2022-12-11T06:03:15.574Z,88.49
2022-12-11T06:04:15.499Z,88.60
2022-12-11T06:05:15.449Z,88.71
2022-12-11T06:06:15.491Z,88.49
2022-12-11T06:07:15.470Z,88.60
2022-12-11T06:08:15.518Z,88.75
2022-12-11T06:09:15.418Z,88.64
2022-12-11T06:10:15.405Z,88.75
2022-12-11T06:11:18.446Z,88.75
2022-12-11T06:12:16.438Z,88.96
2022-12-11T06:13:16.116Z,88.85
2022-12-11T06:14:15.479Z,88.47
2022-12-11T06:15:15.329Z,88.68
2022-12-11T06:16:15.411Z,89.04
2022-12-11T06:17:15.325Z,89.81
2022-12-11T06:18:15.326Z,90.34
2022-12-11T06:19:15.349Z,90.86
2022-12-11T06:20:15.290Z,90.66
2022-12-11T06:21:15.244Z,90.44
2022-12-11T06:22:15.277Z,90.44
2022-12-11T06:23:15.219Z,90.02
2022-12-11T06:24:15.275Z,89.92
2022-12-11T06:25:15.236Z,90.12
2022-12-11T06:26:15.219Z,90.44
2022-12-11T06:27:15.166Z,89.71
2022-12-11T06:28:15.236Z,89.60
2022-12-11T06:29:15.144Z,90.02
2022-12-11T06:30:15.106Z,90.23
2022-12-11T06:31:15.695Z,90.23
2022-12-11T06:32:15.138Z,90.12
2022-12-11T06:33:15.053Z,90.34
2022-12-11T06:34:15.119Z,89.71
2022-12-11T06:35:15.071Z,89.39
2022-12-11T06:36:15.110Z,89.39
2022-12-11T06:37:15.100Z,89.60
2022-12-11T06:38:15.060Z,89.81
2022-12-11T06:39:14.978Z,89.54
2022-12-11T06:40:15.080Z,89.86
2022-12-11T06:41:14.991Z,89.96
2022-12-11T06:42:14.967Z,89.96
2022-12-11T06:43:14.981Z,89.75
2022-12-11T06:44:14.952Z,89.60
2022-12-11T06:45:14.925Z,89.50
2022-12-11T06:46:15.107Z,89.39
2022-12-11T06:47:14.934Z,89.29
2022-12-11T06:48:14.882Z,89.07
2022-12-11T06:49:14.868Z,89.29
2022-12-11T06:50:14.871Z,89.60
2022-12-11T06:51:14.811Z,89.71
2022-12-11T06:52:18.433Z,89.87
2022-12-11T06:53:14.933Z,89.67
2022-12-11T06:54:14.866Z,88.89
2022-12-11T06:55:14.781Z,88.26
2022-12-11T06:56:14.825Z,87.95
2022-12-11T06:57:14.770Z,87.95
2022-12-11T06:58:14.786Z,87.59
2022-12-11T06:59:14.738Z,87.17
2022-12-11T07:00:14.718Z,86.23
2022-12-11T07:01:15.693Z,85.39
2022-12-11T07:02:14.831Z,85.71
2022-12-11T07:03:14.663Z,85.39
2022-12-11T07:04:14.681Z,85.71
2022-12-11T07:05:14.712Z,85.81
2022-12-11T07:06:14.734Z,85.95
2022-12-11T07:07:14.633Z,86.37
2022-12-11T07:08:14.650Z,86.69
2022-12-11T07:09:14.629Z,86.90
2022-12-11T07:10:14.686Z,87.21
2022-12-11T07:11:14.569Z,87.63
2022-12-11T07:12:14.569Z,88.01
2022-12-11T07:13:14.628Z,88.43
2022-12-11T07:14:14.579Z,88.32
2022-12-11T07:15:14.607Z,88.12
2022-12-11T07:16:14.557Z,88.22
2022-12-11T07:17:14.483Z,87.91
2022-12-11T07:18:14.494Z,87.28
2022-12-11T07:19:14.474Z,86.76
2022-12-11T07:20:14.473Z,86.23
2022-12-11T07:21:14.433Z,86.23
2022-12-11T07:22:14.471Z,86.54
2022-12-11T07:23:14.428Z,86.76
2022-12-11T07:24:14.477Z,86.65
2022-12-11T07:25:14.380Z,86.54
2022-12-11T07:26:14.408Z,86.54
2022-12-11T07:27:14.367Z,86.54
2022-12-11T07:28:16.859Z,86.54
2022-12-11T07:29:14.389Z,86.54
2022-12-11T07:30:14.337Z,86.65
2022-12-11T07:31:14.396Z,86.65
2022-12-11T07:32:14.370Z,86.65
2022-12-11T07:33:14.377Z,86.33
2022-12-11T07:34:14.274Z,86.12
2022-12-11T07:35:14.417Z,86.33
2022-12-11T07:36:14.279Z,86.12
2022-12-11T07:37:14.272Z,85.81
2022-12-11T07:38:14.381Z,86.02
2022-12-11T07:39:14.232Z,86.12
2022-12-11T07:40:14.199Z,86.12
2022-12-11T07:41:14.231Z,86.23
2022-12-11T07:42:14.159Z,86.16
2022-12-11T07:43:14.407Z,86.47
2022-12-11T07:44:14.140Z,86.79
2022-12-11T07:45:14.348Z,86.69
2022-12-11T07:46:14.152Z,86.58
2022-12-11T07:47:14.159Z,86.79
2022-12-11T07:48:14.095Z,86.90
2022-12-11T07:49:14.158Z,86.37
2022-12-11T07:50:14.067Z,86.16
2022-12-11T07:51:14.074Z,85.95
2022-12-11T07:52:14.033Z,85.95
2022-12-11T07:53:14.049Z,85.95
2022-12-11T07:54:14.042Z,86.06
2022-12-11T07:55:14.115Z,85.95
2022-12-11T07:56:13.987Z,85.95
2022-12-11T07:57:14.513Z,86.16
2022-12-11T07:58:13.969Z,86.06
2022-12-11T07:59:14.012Z,85.64
2022-12-11T08:00:13.945Z,85.42
2022-12-11T08:01:14.003Z,85.11
2022-12-11T08:02:13.978Z,84.63
2022-12-11T08:03:13.945Z,84.63
2022-12-11T08:04:13.887Z,85.19
2022-12-11T08:05:14.140Z,85.61
2022-12-11T08:06:13.909Z,85.93
2022-12-11T08:07:13.934Z,85.93
2022-12-11T08:08:13.875Z,85.93
2022-12-11T08:09:20.706Z,86.35
2022-12-11T08:10:14.803Z,86.98
2022-12-11T08:11:13.852Z,86.87
2022-12-11T08:12:21.402Z,86.55
2022-12-11T08:13:17.794Z,86.24
2022-12-11T08:14:13.762Z,86.24
2022-12-11T08:15:14.036Z,86.24
2022-12-11T08:16:13.772Z,86.13
2022-12-11T08:17:13.830Z,86.13
2022-12-11T08:18:13.704Z,86.66
2022-12-11T08:19:13.726Z,86.98
2022-12-11T08:20:13.715Z,87.23
2022-12-11T08:21:13.697Z,87.44
2022-12-11T08:22:13.665Z,87.96
2022-12-11T08:23:13.683Z,88.24
2022-12-11T08:24:13.638Z,88.55
2022-12-11T08:25:13.857Z,87.71
2022-12-11T08:26:13.633Z,86.55
2022-12-11T08:27:13.622Z,86.87
2022-12-11T08:28:13.600Z,87.54
2022-12-11T08:29:17.532Z,86.91
2022-12-11T08:30:13.578Z,87.02
2022-12-11T08:31:13.627Z,86.91
2022-12-11T08:32:13.561Z,87.79
2022-12-11T08:33:13.566Z,88.00
2022-12-11T08:34:13.528Z,87.96
2022-12-11T08:35:13.590Z,87.85
2022-12-11T08:36:13.477Z,87.65
2022-12-11T08:37:13.515Z,87.75
2022-12-11T08:38:13.484Z,87.60
2022-12-11T08:39:13.504Z,87.19
2022-12-11T08:40:13.423Z,86.77
2022-12-11T08:41:13.463Z,87.19
2022-12-11T08:42:13.402Z,87.08
2022-12-11T08:43:13.495Z,86.35
2022-12-11T08:44:16.695Z,86.35
2022-12-11T08:45:13.756Z,87.12
2022-12-11T08:46:13.462Z,87.33
2022-12-11T08:47:13.371Z,87.96
2022-12-11T08:48:13.330Z,88.59
2022-12-11T08:49:13.335Z,88.34
2022-12-11T08:50:13.310Z,88.34
2022-12-11T08:51:13.336Z,88.45
2022-12-11T08:52:13.267Z,88.02
2022-12-11T08:53:13.289Z,87.46
2022-12-11T08:54:13.247Z,86.72
2022-12-11T08:55:13.623Z,86.52
2022-12-11T08:56:13.224Z,85.68
2022-12-11T08:57:13.270Z,84.73
2022-12-11T08:58:13.201Z,84.59
2022-12-11T08:59:13.346Z,84.69
2022-12-11T09:00:13.175Z,84.59
2022-12-11T09:01:13.209Z,84.48
2022-12-11T09:02:13.254Z,83.81
2022-12-11T09:03:13.213Z,83.50
2022-12-11T09:04:13.142Z,83.36
2022-12-11T09:05:13.440Z,83.25
2022-12-11T09:06:13.089Z,82.20
2022-12-11T09:07:13.187Z,82.56
2022-12-11T09:08:13.863Z,83.29
2022-12-11T09:09:13.115Z,82.98
2022-12-11T09:10:13.095Z,83.44
2022-12-11T09:11:13.064Z,83.71
2022-12-11T09:12:13.015Z,83.61
2022-12-11T09:13:13.044Z,83.81
2022-12-11T09:14:13.005Z,83.88
2022-12-11T09:15:13.403Z,83.67
2022-12-11T09:16:13.057Z,83.25
2022-12-11T09:17:12.978Z,83.15
2022-12-11T09:18:12.980Z,83.01
2022-12-11T09:19:12.979Z,83.04
2022-12-11T09:20:12.918Z,82.20
2022-12-11T09:21:12.926Z,81.85
2022-12-11T09:22:12.896Z,81.64
2022-12-11T09:23:12.905Z,81.75
2022-12-11T09:24:12.876Z,81.96
2022-12-11T09:25:13.340Z,82.06
2022-12-11T09:26:12.855Z,81.75
2022-12-11T09:27:12.864Z,81.19
2022-12-11T09:28:12.815Z,80.38
2022-12-11T09:29:12.847Z,79.65
2022-12-11T09:30:12.793Z,79.97
2022-12-11T09:31:12.904Z,80.35
2022-12-11T09:32:12.803Z,80.66
2022-12-11T09:33:12.793Z,80.87
2022-12-11T09:34:12.747Z,81.08
2022-12-11T09:35:13.117Z,81.29
2022-12-11T09:36:12.729Z,81.40
2022-12-11T09:37:12.761Z,80.77
2022-12-11T09:38:12.809Z,81.75
2022-12-11T09:39:12.770Z,82.27
2022-12-11T09:40:12.686Z,84.27
2022-12-11T09:41:12.679Z,85.48
2022-12-11T09:42:12.676Z,84.01
2022-12-11T09:43:12.665Z,82.65
2022-12-11T09:44:12.623Z,82.23
2022-12-11T09:45:12.955Z,82.23
2022-12-11T09:46:12.662Z,82.76
2022-12-11T09:47:12.605Z,83.28
2022-12-11T09:48:12.623Z,83.84
2022-12-11T09:49:12.594Z,84.33
2022-12-11T09:50:12.583Z,84.33
2022-12-11T09:51:12.560Z,84.54
2022-12-11T09:52:12.530Z,84.44
2022-12-11T09:53:12.547Z,83.98
2022-12-11T09:54:12.520Z,83.98
2022-12-11T09:55:12.783Z,84.19
2022-12-11T09:56:12.466Z,84.50
2022-12-11T09:57:12.497Z,84.29
2022-12-11T09:58:12.446Z,84.05
2022-12-11T09:59:12.449Z,83.94
2022-12-11T10:00:12.463Z,84.05
2022-12-11T10:01:12.457Z,84.22
2022-12-11T10:02:12.465Z,83.59
2022-12-11T10:03:12.410Z,83.69
2022-12-11T10:04:12.363Z,83.59
2022-12-11T10:05:12.759Z,83.06
2022-12-11T10:06:12.377Z,83.69
2022-12-11T10:07:12.351Z,83.80
2022-12-11T10:08:12.355Z,84.22
2022-12-11T10:09:12.330Z,83.52
2022-12-11T10:10:12.292Z,84.15
2022-12-11T10:11:12.317Z,84.19
2022-12-11T10:12:12.277Z,84.39
2022-12-11T10:13:12.275Z,84.29
2022-12-11T10:14:12.235Z,84.71
2022-12-11T10:15:12.696Z,84.71
2022-12-11T10:16:12.275Z,85.13
2022-12-11T10:17:12.273Z,84.39
2022-12-11T10:18:12.197Z,83.81
2022-12-11T10:19:12.206Z,84.01
2022-12-11T10:20:12.162Z,84.71
2022-12-11T10:21:12.180Z,84.92
2022-12-11T10:22:12.139Z,84.92
2022-12-11T10:23:12.203Z,84.92
2022-12-11T10:24:12.124Z,84.92
2022-12-11T10:25:12.670Z,84.88
2022-12-11T10:26:12.108Z,84.46
2022-12-11T10:27:12.109Z,84.05
2022-12-11T10:28:12.074Z,84.15
2022-12-11T10:29:12.088Z,84.25
2022-12-11T10:30:12.067Z,84.36
2022-12-11T10:31:12.139Z,84.56
2022-12-11T10:32:12.015Z,84.39
2022-12-11T10:33:12.050Z,84.81
2022-12-11T10:34:11.994Z,84.81
2022-12-11T10:35:12.365Z,84.22
2022-12-11T10:36:11.964Z,84.75
2022-12-11T10:37:11.983Z,85.21
2022-12-11T10:38:11.937Z,86.92
2022-12-11T10:39:11.983Z,87.24
2022-12-11T10:40:11.910Z,87.62
2022-12-11T10:41:11.919Z,88.04
2022-12-11T10:42:11.897Z,88.21
2022-12-11T10:43:11.898Z,86.85
2022-12-11T10:44:11.867Z,87.30
2022-12-11T10:45:12.167Z,87.89
2022-12-11T10:46:11.859Z,87.99
2022-12-11T10:47:11.856Z,87.64
2022-12-11T10:48:11.808Z,87.23
2022-12-11T10:49:11.842Z,87.01
2022-12-11T10:50:11.782Z,86.70
2022-12-11T10:51:11.824Z,85.97
2022-12-11T10:52:11.788Z,84.56
2022-12-11T10:53:11.763Z,84.15
2022-12-11T10:54:11.752Z,84.25
2022-12-11T10:55:11.980Z,84.15
2022-12-11T10:56:11.703Z,84.05
2022-12-11T10:57:11.728Z,84.22
2022-12-11T10:58:11.816Z,84.32
2022-12-11T10:59:11.689Z,84.11
2022-12-11T11:00:11.653Z,83.00
2022-12-11T11:01:11.766Z,84.19
2022-12-11T11:02:11.638Z,84.29
2022-12-11T11:03:11.721Z,84.71
2022-12-11T11:04:11.645Z,84.71
2022-12-11T11:05:11.962Z,83.98
2022-12-11T11:06:11.576Z,83.77
2022-12-11T11:07:11.738Z,83.25
2022-12-11T11:08:11.584Z,83.21
2022-12-11T11:09:11.585Z,83.45
2022-12-11T11:10:11.560Z,83.42
2022-12-11T11:11:11.540Z,83.73
2022-12-11T11:12:11.501Z,84.15
2022-12-11T11:13:11.520Z,84.05
2022-12-11T11:14:11.470Z,83.69
2022-12-11T11:15:11.821Z,83.00
2022-12-11T11:16:11.532Z,83.52
2022-12-11T11:17:11.457Z,83.62
2022-12-11T11:18:11.429Z,84.05
2022-12-11T11:19:11.448Z,84.46
2022-12-11T11:20:11.402Z,84.56
2022-12-11T11:21:11.414Z,85.26
2022-12-11T11:22:11.407Z,87.04
2022-12-11T11:23:11.395Z,85.43
2022-12-11T11:24:11.358Z,83.65
2022-12-11T11:25:11.609Z,82.50
2022-12-11T11:26:11.354Z,81.46
2022-12-11T11:27:13.695Z,81.07
2022-12-11T11:28:11.302Z,81.29
2022-12-11T11:29:11.319Z,81.60
2022-12-11T11:30:11.291Z,82.02
2022-12-11T11:31:11.358Z,82.33
2022-12-11T11:32:11.250Z,82.75
2022-12-11T11:33:11.259Z,82.86
2022-12-11T11:34:11.218Z,82.75
2022-12-11T11:35:11.669Z,82.33
2022-12-11T11:36:11.200Z,81.70
2022-12-11T11:37:11.206Z,81.49
2022-12-11T11:38:11.175Z,81.18
2022-12-11T11:39:11.193Z,81.07
2022-12-11T11:40:11.151Z,81.92
2022-12-11T11:41:14.897Z,82.33
2022-12-11T11:42:11.113Z,82.86
2022-12-11T11:43:11.131Z,83.06
2022-12-11T11:44:11.113Z,82.75
2022-12-11T11:45:11.483Z,82.29
2022-12-11T11:46:11.200Z,82.09
2022-12-11T11:47:11.070Z,81.25
2022-12-11T11:48:11.606Z,81.04
2022-12-11T11:49:11.039Z,81.04
2022-12-11T11:50:11.031Z,81.25
2022-12-11T11:51:11.029Z,80.83
2022-12-11T11:52:11.014Z,80.58
2022-12-11T11:53:10.977Z,80.31
2022-12-11T11:54:11.045Z,79.99
2022-12-11T11:55:11.201Z,80.62
2022-12-11T11:56:11.025Z,80.90
2022-12-11T11:57:10.932Z,80.93
2022-12-11T11:58:11.013Z,81.15
2022-12-11T11:59:10.904Z,81.00
2022-12-11T12:00:10.912Z,80.38
2022-12-11T12:01:10.880Z,80.16
2022-12-11T12:02:10.921Z,79.75
2022-12-11T12:03:10.976Z,79.96
2022-12-11T12:04:10.896Z,79.92
2022-12-11T12:05:11.129Z,80.02
2022-12-11T12:06:14.856Z,80.44
2022-12-11T12:07:10.801Z,80.51
2022-12-11T12:08:10.855Z,80.20
2022-12-11T12:09:10.817Z,79.78
2022-12-11T12:10:10.902Z,79.78
2022-12-11T12:11:10.755Z,79.57
2022-12-11T12:12:10.775Z,78.84
2022-12-11T12:13:30.209Z,78.74
2022-12-11T12:14:29.171Z,78.21
2022-12-11T12:15:11.985Z,78.42
2022-12-11T12:16:43.800Z,78.67
2022-12-11T12:17:11.757Z,78.67
2022-12-11T12:18:10.681Z,78.77
2022-12-11T12:19:10.652Z,79.19
2022-12-11T12:20:10.690Z,80.24
2022-12-11T12:21:10.640Z,81.00
2022-12-11T12:22:10.671Z,79.85
2022-12-11T12:23:10.599Z,78.70
2022-12-11T12:24:10.619Z,79.22
2022-12-11T12:25:10.932Z,79.64
2022-12-11T12:26:10.587Z,79.64
2022-12-11T12:27:43.372Z,80.16
2022-12-11T12:28:11.576Z,81.00
2022-12-11T12:29:10.520Z,81.63
2022-12-11T12:30:10.663Z,81.11
2022-12-11T12:31:10.524Z,80.58
2022-12-11T12:32:10.503Z,80.06
2022-12-11T12:33:10.501Z,81.32
2022-12-11T12:34:10.586Z,81.11
2022-12-11T12:35:10.750Z,79.22
2022-12-11T12:36:10.452Z,79.26
2022-12-11T12:37:10.419Z,79.79
2022-12-11T12:38:10.444Z,80.41
2022-12-11T12:39:10.418Z,79.93
2022-12-11T12:40:10.440Z,80.45
2022-12-11T12:41:10.396Z,80.66
2022-12-11T12:42:10.388Z,80.93
2022-12-11T12:43:10.353Z,80.73
2022-12-11T12:44:10.420Z,80.62
2022-12-11T12:45:10.619Z,80.27
2022-12-11T12:46:10.403Z,79.96
2022-12-11T12:47:10.316Z,79.85
2022-12-11T12:48:10.297Z,80.16
2022-12-11T12:49:10.284Z,80.16
2022-12-11T12:50:10.428Z,80.24
2022-12-11T12:51:10.242Z,80.13
2022-12-11T12:52:10.261Z,80.34